Time;durP1;ratioP1;P1;durP2;ratioP2;P2;SDS_P1;SDS_P2;PMS_P1;PMS_P2;Temp;Humidity;BMP_temperature;BMP_pressure;BME280_temperature;BME280_humidity;BME280_pressure;Samples;Min_cycle;Max_cycle;Signal;HPM_P1;HPM_P2
2022/04/16 00:02:08;;;;;;;16.58;11.05;;;;;;;;;;5048521;28;20041;-69
2022/04/16 00:04:34;;;;;;;15.00;10.48;;;;;;;;;;5047364;28;20045;-69
2022/04/16 00:07:00;;;;;;;14.73;9.93;;;;;;;;;;5048422;28;20178;-69
2022/04/16 00:09:26;;;;;;;17.48;11.40;;;;;;;;;;5047734;28;20033;-68
2022/04/16 00:11:52;;;;;;;14.02;11.00;;;;;;;;;;5047888;28;20044;-69
2022/04/16 00:14:19;;;;;;;16.58;10.75;;;;;;;;;;5048159;28;20051;-68
2022/04/16 00:16:46;;;;;;;15.95;10.75;;;;;;;;;;5048661;28;20063;-69
2022/04/16 00:19:12;;;;;;;17.75;10.82;;;;;;;;;;5045901;28;20045;-69
2022/04/16 00:21:39;;;;;;;14.43;9.88;;;;;;;;;;5075962;28;20099;-69
2022/04/16 00:24:06;;;;;;;19.02;11.23;;;;;;;;;;5048605;28;20040;-68
2022/04/16 00:26:32;;;;;;;13.05;10.40;;;;;;;;;;5056583;28;20044;-68
2022/04/16 00:28:59;;;;;;;17.15;11.57;;;;;;;;;;5049737;28;20052;-69
2022/04/16 00:31:28;;;;;;;14.10;10.85;;;;;;;;;;5048922;28;20578;-68
2022/04/16 00:33:54;;;;;;;17.27;11.68;;;;;;;;;;5082107;28;20446;-69
2022/04/16 00:36:21;;;;;;;15.65;11.35;;;;;;;;;;5049958;28;20043;-69
2022/04/16 00:38:47;;;;;;;16.35;10.75;;;;;;;;;;5049805;28;20076;-69
2022/04/16 00:41:13;;;;;;;15.90;11.52;;;;;;;;;;5047035;28;20047;-68
2022/04/16 00:43:40;;;;;;;19.38;12.07;;;;;;;;;;5045985;28;20136;-68
2022/04/16 00:46:06;;;;;;;15.57;11.40;;;;;;;;;;5051258;28;20094;-69
2022/04/16 00:48:32;;;;;;;16.30;11.48;;;;;;;;;;5063131;28;20033;-69
2022/04/16 00:50:59;;;;;;;17.42;11.77;;;;;;;;;;5047485;28;20053;-69
2022/04/16 00:53:25;;;;;;;15.20;11.75;;;;;;;;;;5047220;28;20041;-69
2022/04/16 00:55:51;;;;;;;15.73;11.40;;;;;;;;;;5047195;28;20124;-69
2022/04/16 00:58:18;;;;;;;16.90;11.50;;;;;;;;;;5047387;28;20045;-68
2022/04/16 01:00:44;;;;;;;16.75;12.13;;;;;;;;;;5047777;28;20077;-69
2022/04/16 01:03:10;;;;;;;21.08;12.18;;;;;;;;;;5047876;28;20196;-69
2022/04/16 01:05:37;;;;;;;17.27;11.90;;;;;;;;;;5061879;28;20043;-69
2022/04/16 01:08:04;;;;;;;18.13;12.30;;;;;;;;;;5045206;28;20052;-69
2022/04/16 01:10:31;;;;;;;17.70;12.02;;;;;;;;;;5030866;28;20045;-69
2022/04/16 01:12:58;;;;;;;16.65;12.40;;;;;;;;;;5044485;28;20099;-69
2022/04/16 01:15:25;;;;;;;19.25;12.43;;;;;;;;;;5049630;28;20037;-69
2022/04/16 01:17:51;;;;;;;19.90;12.68;;;;;;;;;;5048126;28;20041;-69
2022/04/16 01:20:18;;;;;;;17.75;12.60;;;;;;;;;;5050990;28;20114;-69
2022/04/16 01:22:54;;;;;;;18.30;12.60;;;;;;;;;;5082599;28;20057;-69
2022/04/16 01:25:24;;;;;;;18.27;13.15;;;;;;;;;;5047521;28;20182;-69
2022/04/16 01:27:50;;;;;;;25.30;14.13;;;;;;;;;;5050969;28;20045;-68
2022/04/16 01:30:19;;;;;;;21.95;13.32;;;;;;;;;;5052040;28;20052;-68
2022/04/16 01:32:46;;;;;;;21.80;13.95;;;;;;;;;;5053108;28;20052;-69
2022/04/16 01:35:12;;;;;;;22.27;14.30;;;;;;;;;;5053156;28;20469;-69
2022/04/16 01:37:38;;;;;;;22.15;14.68;;;;;;;;;;5051357;28;20045;-69
2022/04/16 01:40:06;;;;;;;21.88;14.43;;;;;;;;;;5051408;28;20049;-69
2022/04/16 01:42:35;;;;;;;22.95;13.82;;;;;;;;;;5051332;28;20095;-69
2022/04/16 01:45:05;;;;;;;20.30;13.75;;;;;;;;;;5052527;28;20095;-69
2022/04/16 01:47:33;;;;;;;22.88;15.32;;;;;;;;;;5050894;28;20099;-68
2022/04/16 01:49:59;;;;;;;22.00;15.32;;;;;;;;;;5051649;28;20456;-69
2022/04/16 01:52:26;;;;;;;21.67;14.80;;;;;;;;;;5052643;28;20049;-68
2022/04/16 01:54:53;;;;;;;20.92;14.93;;;;;;;;;;5052500;28;20044;-69
2022/04/16 01:57:19;;;;;;;23.55;15.18;;;;;;;;;;5035470;28;20037;-69
2022/04/16 01:59:49;;;;;;;21.45;15.15;;;;;;;;;;5052103;28;20551;-69
2022/04/16 02:02:15;;;;;;;26.20;16.30;;;;;;;;;;5053444;28;20085;-69
2022/04/16 02:04:41;;;;;;;18.15;14.60;;;;;;;;;;5044338;28;20465;-69
2022/04/16 02:07:08;;;;;;;25.25;16.45;;;;;;;;;;5052093;28;20040;-69
2022/04/16 02:09:34;;;;;;;23.58;15.18;;;;;;;;;;5052104;28;20049;-69
2022/04/16 02:12:00;;;;;;;24.25;15.88;;;;;;;;;;5052418;28;20033;-69
2022/04/16 02:14:26;;;;;;;22.33;15.35;;;;;;;;;;5050125;28;20397;-68
2022/04/16 02:16:53;;;;;;;24.60;15.13;;;;;;;;;;5047319;28;20469;-68
2022/04/16 02:19:19;;;;;;;21.52;14.75;;;;;;;;;;5048532;28;20045;-69
2022/04/16 02:21:46;;;;;;;20.52;15.07;;;;;;;;;;5047458;28;20064;-68
2022/04/16 02:24:13;;;;;;;24.30;15.85;;;;;;;;;;5049793;28;20045;-68
2022/04/16 02:26:40;;;;;;;26.40;16.85;;;;;;;;;;5052161;28;20075;-69
2022/04/16 02:29:08;;;;;;;24.27;15.93;;;;;;;;;;5049604;28;20088;-69
2022/04/16 02:31:34;;;;;;;22.92;16.27;;;;;;;;;;5048065;28;20048;-68
2022/04/16 02:34:00;;;;;;;28.88;18.92;;;;;;;;;;5048517;28;20040;-69
2022/04/16 02:36:26;;;;;;;27.77;18.38;;;;;;;;;;5049789;28;20041;-69
2022/04/16 02:38:54;;;;;;;28.23;18.05;;;;;;;;;;5049364;28;20045;-68
2022/04/16 02:41:20;;;;;;;25.35;17.33;;;;;;;;;;5066955;28;20041;-69
2022/04/16 02:43:46;;;;;;;24.52;17.80;;;;;;;;;;5049608;28;20052;-68
2022/04/16 02:48:57;;;;;;;26.23;17.27;;;;;;;;;;5044679;28;20051;-69
2022/04/16 02:51:24;;;;;;;22.92;16.40;;;;;;;;;;5050038;28;20107;-68
2022/04/16 02:53:50;;;;;;;26.30;18.58;;;;;;;;;;5053482;28;20041;-69
2022/04/16 02:56:17;;;;;;;25.48;18.20;;;;;;;;;;5050286;28;20033;-68
2022/04/16 02:58:43;;;;;;;27.02;17.70;;;;;;;;;;5049342;28;20045;-68
2022/04/16 03:01:09;;;;;;;29.67;18.27;;;;;;;;;;5049196;28;20041;-68
2022/04/16 03:03:35;;;;;;;28.30;18.42;;;;;;;;;;5048667;28;20045;-68
2022/04/16 03:06:01;;;;;;;28.27;17.95;;;;;;;;;;5066409;28;20044;-69
2022/04/16 03:08:28;;;;;;;27.25;17.85;;;;;;;;;;5048907;28;20037;-68
2022/04/16 03:10:55;;;;;;;25.65;16.38;;;;;;;;;;5047654;28;20428;-68
2022/04/16 03:13:22;;;;;;;27.42;19.05;;;;;;;;;;5054572;28;20069;-68
2022/04/16 03:18:33;;;;;;;23.95;17.02;;;;;;;;;;5050879;28;20102;-69
2022/04/16 03:20:59;;;;;;;25.33;18.33;;;;;;;;;;5051132;28;20481;-69
2022/04/16 03:23:26;;;;;;;30.58;20.00;;;;;;;;;;5050130;28;20045;-68
2022/04/16 03:25:58;;;;;;;28.77;19.30;;;;;;;;;;5033899;28;20045;-69
2022/04/16 03:28:24;;;;;;;28.20;17.92;;;;;;;;;;5050184;28;20127;-69
2022/04/16 03:30:50;;;;;;;30.20;19.33;;;;;;;;;;5048010;28;20071;-68
2022/04/16 03:33:17;;;;;;;29.73;18.60;;;;;;;;;;5033998;28;20119;-68
2022/04/16 03:35:43;;;;;;;30.13;19.60;;;;;;;;;;5049581;28;20033;-69
2022/04/16 03:38:09;;;;;;;29.83;19.60;;;;;;;;;;5049169;28;20128;-69
2022/04/16 03:40:36;;;;;;;26.70;17.70;;;;;;;;;;5048705;28;20041;-69
2022/04/16 03:43:02;;;;;;;25.80;17.70;;;;;;;;;;5050209;28;20051;-69
2022/04/16 03:45:32;;;;;;;29.73;19.55;;;;;;;;;;5050598;28;20052;-69
2022/04/16 03:47:59;;;;;;;28.52;18.55;;;;;;;;;;5047848;28;20033;-69
2022/04/16 03:50:26;;;;;;;29.17;18.52;;;;;;;;;;5049506;28;20099;-69
2022/04/16 03:52:53;;;;;;;25.75;17.98;;;;;;;;;;5049787;28;20474;-68
2022/04/16 04:00:51;;;;;;;34.33;21.23;;;;;;;;;;5046817;28;20088;-69
2022/04/16 04:03:17;;;;;;;31.23;20.75;;;;;;;;;;5036914;28;20090;-69
2022/04/16 04:05:45;;;;;;;34.30;20.92;;;;;;;;;;5048530;28;20044;-69
2022/04/16 04:08:11;;;;;;;29.88;19.48;;;;;;;;;;5045730;28;20098;-69
2022/04/16 04:10:38;;;;;;;35.28;21.05;;;;;;;;;;5050642;28;20117;-69
2022/04/16 04:13:04;;;;;;;35.22;22.58;;;;;;;;;;5050741;28;20440;-69
2022/04/16 04:15:30;;;;;;;33.92;21.33;;;;;;;;;;5045289;28;20042;-69
2022/04/16 04:17:57;;;;;;;39.10;22.65;;;;;;;;;;5049766;28;20063;-69
2022/04/16 04:20:23;;;;;;;39.67;23.50;;;;;;;;;;5042843;28;20048;-69
2022/04/16 04:22:49;;;;;;;35.20;21.52;;;;;;;;;;5043449;28;20446;-69
2022/04/16 04:25:16;;;;;;;36.75;23.92;;;;;;;;;;5049388;28;20068;-69
2022/04/16 04:27:42;;;;;;;38.45;24.15;;;;;;;;;;5048413;28;20124;-69
2022/04/16 04:30:08;;;;;;;36.80;23.17;;;;;;;;;;5027923;28;20045;-69
2022/04/16 04:32:35;;;;;;;36.30;22.77;;;;;;;;;;5080618;28;20049;-69
2022/04/16 04:35:02;;;;;;;33.33;22.17;;;;;;;;;;5078065;28;20041;-69
2022/04/16 04:37:28;;;;;;;38.30;24.13;;;;;;;;;;5048329;28;20492;-68
2022/04/16 04:39:54;;;;;;;37.17;24.95;;;;;;;;;;5045897;28;20076;-68
2022/04/16 04:42:27;;;;;;;38.22;24.30;;;;;;;;;;5046743;28;20831;-68
2022/04/16 04:44:53;;;;;;;35.47;24.10;;;;;;;;;;5049544;28;20048;-68
2022/04/16 04:47:20;;;;;;;37.33;23.95;;;;;;;;;;5032449;28;20045;-68
2022/04/16 04:49:46;;;;;;;36.33;24.30;;;;;;;;;;5049659;28;20047;-68
2022/04/16 04:52:20;;;;;;;40.28;26.23;;;;;;;;;;5041347;28;20053;-69
2022/04/16 04:54:46;;;;;;;37.75;24.48;;;;;;;;;;5040908;28;20481;-68
2022/04/16 04:57:12;;;;;;;39.20;25.27;;;;;;;;;;5045351;28;20069;-67
2022/04/16 04:59:38;;;;;;;40.88;25.08;;;;;;;;;;5053521;28;20489;-67
2022/04/16 05:02:05;;;;;;;38.75;25.63;;;;;;;;;;5053315;28;20080;-68
2022/04/16 05:04:32;;;;;;;38.90;26.63;;;;;;;;;;5053344;28;20048;-68
2022/04/16 05:06:58;;;;;;;35.78;24.08;;;;;;;;;;5053445;28;20040;-68
2022/04/16 05:09:24;;;;;;;35.08;25.67;;;;;;;;;;5053291;28;20489;-67
2022/04/16 05:11:50;;;;;;;38.72;26.52;;;;;;;;;;5048432;28;20041;-67
2022/04/16 05:14:16;;;;;;;37.05;24.40;;;;;;;;;;5053392;28;20496;-67
2022/04/16 05:16:42;;;;;;;37.13;25.77;;;;;;;;;;5028965;28;20433;-67
2022/04/16 05:19:08;;;;;;;36.13;25.02;;;;;;;;;;5036488;28;20045;-67
2022/04/16 05:21:34;;;;;;;35.33;25.83;;;;;;;;;;5052798;28;20370;-68
2022/04/16 05:24:01;;;;;;;34.55;24.92;;;;;;;;;;5083195;28;20369;-67
2022/04/16 05:26:27;;;;;;;30.40;23.30;;;;;;;;;;5084955;28;20083;-67
2022/04/16 05:28:53;;;;;;;35.90;24.38;;;;;;;;;;5052328;28;20036;-67
2022/04/16 05:31:20;;;;;;;34.20;23.85;;;;;;;;;;5035453;28;20077;-68
2022/04/16 05:36:31;;;;;;;33.83;23.42;;;;;;;;;;5045652;28;20117;-68
2022/04/16 05:38:57;;;;;;;33.97;24.08;;;;;;;;;;5048572;28;20455;-67
2022/04/16 05:41:23;;;;;;;33.13;23.70;;;;;;;;;;5051279;28;20032;-67
2022/04/16 05:43:49;;;;;;;28.88;20.73;;;;;;;;;;5052055;28;20047;-68
2022/04/16 05:46:15;;;;;;;33.40;22.05;;;;;;;;;;5051789;28;20185;-67
2022/04/16 05:48:41;;;;;;;30.55;20.92;;;;;;;;;;5050864;28;20099;-67
2022/04/16 05:51:07;;;;;;;26.00;19.60;;;;;;;;;;5052283;28;20061;-67
2022/04/16 05:53:33;;;;;;;24.55;19.38;;;;;;;;;;5051733;28;20049;-68
2022/04/16 05:56:00;;;;;;;26.83;19.70;;;;;;;;;;5051355;28;20119;-67
2022/04/16 05:58:26;;;;;;;25.38;18.90;;;;;;;;;;5051919;28;20071;-67
2022/04/16 06:00:52;;;;;;;28.58;19.33;;;;;;;;;;5052208;28;20037;-68
2022/04/16 06:03:19;;;;;;;27.55;19.75;;;;;;;;;;5052229;28;20052;-67
2022/04/16 06:05:46;;;;;;;28.27;19.15;;;;;;;;;;5051307;28;20037;-67
2022/04/16 06:08:12;;;;;;;25.35;18.20;;;;;;;;;;5051792;28;20056;-67
2022/04/16 06:10:38;;;;;;;26.50;18.05;;;;;;;;;;5051823;28;20093;-68
2022/04/16 06:13:05;;;;;;;24.75;18.80;;;;;;;;;;5051789;28;20045;-67
2022/04/16 06:15:32;;;;;;;24.45;18.05;;;;;;;;;;5051460;28;20118;-67
2022/04/16 06:17:58;;;;;;;22.25;16.83;;;;;;;;;;5048244;28;20055;-68
2022/04/16 06:20:24;;;;;;;23.67;17.25;;;;;;;;;;5045486;28;20464;-66
2022/04/16 06:22:51;;;;;;;24.27;16.92;;;;;;;;;;5051097;28;20055;-66
2022/04/16 06:25:17;;;;;;;24.15;17.30;;;;;;;;;;5051274;28;20056;-66
2022/04/16 06:27:43;;;;;;;21.20;15.77;;;;;;;;;;5061813;28;20084;-67
2022/04/16 06:30:10;;;;;;;20.73;15.15;;;;;;;;;;5047709;28;20049;-66
2022/04/16 06:32:37;;;;;;;21.40;15.70;;;;;;;;;;5052370;28;20102;-66
2022/04/16 06:35:05;;;;;;;19.88;14.32;;;;;;;;;;5053562;28;20485;-67
2022/04/16 06:37:35;;;;;;;19.02;13.95;;;;;;;;;;5050953;28;20045;-66
2022/04/16 06:40:02;;;;;;;21.23;15.10;;;;;;;;;;5050998;28;20488;-67
2022/04/16 06:42:28;;;;;;;18.77;13.55;;;;;;;;;;5051562;28;20048;-67
2022/04/16 06:44:54;;;;;;;19.10;13.95;;;;;;;;;;5035192;28;20036;-67
2022/04/16 06:47:21;;;;;;;21.75;14.15;;;;;;;;;;5051466;28;20045;-67
2022/04/16 06:49:47;;;;;;;19.70;13.90;;;;;;;;;;5054729;28;20041;-66
2022/04/16 06:52:13;;;;;;;20.40;13.57;;;;;;;;;;5049299;28;20508;-67
2022/04/16 06:54:39;;;;;;;21.45;14.10;;;;;;;;;;5050196;28;20485;-68
2022/04/16 06:57:05;;;;;;;18.25;13.25;;;;;;;;;;5033612;28;20059;-67
2022/04/16 06:59:31;;;;;;;20.58;13.65;;;;;;;;;;5050056;28;20037;-66
2022/04/16 07:01:57;;;;;;;16.55;12.35;;;;;;;;;;5050726;28;20481;-67
2022/04/16 07:04:23;;;;;;;18.67;13.50;;;;;;;;;;5031908;28;20550;-67
2022/04/16 07:06:49;;;;;;;17.58;13.07;;;;;;;;;;5051210;28;20037;-67
2022/04/16 07:09:15;;;;;;;22.17;14.35;;;;;;;;;;5045565;28;20184;-67
2022/04/16 07:11:42;;;;;;;18.75;13.63;;;;;;;;;;5031713;28;20087;-67
2022/04/16 07:14:08;;;;;;;18.45;13.40;;;;;;;;;;5051643;28;20037;-67
2022/04/16 07:16:34;;;;;;;19.63;13.70;;;;;;;;;;5049520;28;20042;-67
2022/04/16 07:19:00;;;;;;;20.85;13.70;;;;;;;;;;5049816;28;20036;-67
2022/04/16 07:21:26;;;;;;;19.30;13.85;;;;;;;;;;5048951;28;20128;-67
2022/04/16 07:23:52;;;;;;;19.27;13.73;;;;;;;;;;5046681;28;20127;-67
2022/04/16 07:26:18;;;;;;;19.80;14.40;;;;;;;;;;5051115;28;20153;-67
2022/04/16 07:28:44;;;;;;;17.88;13.15;;;;;;;;;;5050486;28;20878;-67
2022/04/16 07:31:10;;;;;;;19.15;14.07;;;;;;;;;;5034649;28;20037;-67
2022/04/16 07:33:37;;;;;;;22.20;14.80;;;;;;;;;;5050972;28;20041;-68
2022/04/16 07:36:03;;;;;;;19.95;13.30;;;;;;;;;;5049593;28;20116;-68
2022/04/16 07:38:29;;;;;;;21.80;12.70;;;;;;;;;;5050235;28;20041;-67
2022/04/16 07:40:55;;;;;;;19.70;12.88;;;;;;;;;;5050883;28;20127;-67
2022/04/16 07:43:21;;;;;;;17.42;12.38;;;;;;;;;;5049690;28;20055;-67
2022/04/16 07:45:47;;;;;;;18.38;12.60;;;;;;;;;;5047907;28;20094;-67
2022/04/16 07:48:13;;;;;;;20.55;13.45;;;;;;;;;;5048604;28;20044;-67
2022/04/16 07:50:39;;;;;;;19.15;12.77;;;;;;;;;;5033435;28;20060;-67
2022/04/16 07:53:06;;;;;;;20.00;13.55;;;;;;;;;;5052618;28;20041;-67
2022/04/16 07:55:33;;;;;;;21.30;13.02;;;;;;;;;;5049639;28;20052;-67
2022/04/16 07:57:59;;;;;;;18.58;12.50;;;;;;;;;;5050107;28;20041;-67
2022/04/16 08:00:25;;;;;;;19.38;12.40;;;;;;;;;;5052400;28;20037;-67
2022/04/16 08:02:51;;;;;;;18.05;12.73;;;;;;;;;;5033669;28;20087;-67
2022/04/16 08:05:18;;;;;;;16.23;12.23;;;;;;;;;;5047735;28;20047;-67
2022/04/16 08:07:47;;;;;;;19.80;13.65;;;;;;;;;;5051401;28;20049;-67
2022/04/16 08:10:13;;;;;;;30.35;23.30;;;;;;;;;;5047115;28;20032;-66
2022/04/16 08:12:39;;;;;;;37.10;29.10;;;;;;;;;;5083420;28;20144;-67
2022/04/16 08:15:06;;;;;;;24.02;17.95;;;;;;;;;;5049795;28;20120;-66
2022/04/16 08:17:32;;;;;;;21.33;15.25;;;;;;;;;;5048695;28;20076;-67
2022/04/16 08:19:59;;;;;;;20.38;15.05;;;;;;;;;;5081581;28;20464;-66
2022/04/16 08:22:28;;;;;;;16.55;12.45;;;;;;;;;;5049831;28;20137;-66
2022/04/16 08:27:39;;;;;;;15.95;11.35;;;;;;;;;;5040684;28;20520;-66
2022/04/16 08:30:07;;;;;;;15.55;11.10;;;;;;;;;;5047220;28;20555;-67
2022/04/16 08:32:37;;;;;;;15.05;11.52;;;;;;;;;;5054083;28;20098;-67
2022/04/16 08:35:04;;;;;;;18.85;11.35;;;;;;;;;;5053757;28;20139;-67
2022/04/16 08:37:31;;;;;;;14.45;10.20;;;;;;;;;;5035357;28;20381;-67
2022/04/16 08:39:57;;;;;;;15.10;9.60;;;;;;;;;;5053530;28;20045;-66
2022/04/16 08:42:23;;;;;;;14.30;9.85;;;;;;;;;;5053703;28;20151;-67
2022/04/16 08:44:50;;;;;;;12.73;9.45;;;;;;;;;;5053886;28;20072;-67
2022/04/16 08:47:16;;;;;;;12.77;8.93;;;;;;;;;;5053523;28;20120;-66
2022/04/16 08:49:42;;;;;;;12.73;8.80;;;;;;;;;;5053664;28;20037;-67
2022/04/16 08:52:09;;;;;;;12.75;9.40;;;;;;;;;;5053042;28;20057;-67
2022/04/16 08:54:36;;;;;;;13.48;10.00;;;;;;;;;;5031780;28;20073;-67
2022/04/16 08:57:02;;;;;;;13.18;9.07;;;;;;;;;;5053449;28;20469;-67
2022/04/16 08:59:28;;;;;;;12.48;9.32;;;;;;;;;;5053943;28;20512;-67
2022/04/16 09:01:54;;;;;;;14.85;8.70;;;;;;;;;;5053950;28;20489;-67
2022/04/16 09:04:21;;;;;;;14.20;9.85;;;;;;;;;;5053900;28;20055;-67
2022/04/16 09:07:00;;;;;;;13.88;8.82;;;;;;;;;;5053576;28;20045;-67
2022/04/16 09:09:27;;;;;;;11.55;8.38;;;;;;;;;;5053013;28;20051;-67
2022/04/16 09:11:53;;;;;;;11.80;8.13;;;;;;;;;;5048553;28;20063;-67
2022/04/16 09:14:19;;;;;;;10.48;7.60;;;;;;;;;;5053747;28;20033;-67
2022/04/16 09:16:46;;;;;;;10.73;7.68;;;;;;;;;;5053291;28;20045;-67
2022/04/16 09:19:12;;;;;;;10.93;7.53;;;;;;;;;;5053640;28;20052;-67
2022/04/16 09:21:41;;;;;;;10.93;7.15;;;;;;;;;;5037020;28;20094;-67
2022/04/16 09:24:07;;;;;;;11.55;7.63;;;;;;;;;;5053561;28;20045;-67
2022/04/16 09:26:34;;;;;;;10.05;6.90;;;;;;;;;;5052694;28;20041;-67
2022/04/16 09:29:10;;;;;;;10.25;6.25;;;;;;;;;;5052714;28;20045;-67
2022/04/16 09:31:38;;;;;;;9.05;5.93;;;;;;;;;;5052796;28;20043;-67
2022/04/16 09:34:05;;;;;;;9.05;5.97;;;;;;;;;;5053010;28;20072;-67
2022/04/16 09:36:33;;;;;;;7.85;5.70;;;;;;;;;;5053180;28;20505;-67
2022/04/16 09:39:06;;;;;;;9.60;5.90;;;;;;;;;;5052730;28;20044;-67
2022/04/16 09:41:33;;;;;;;8.27;5.53;;;;;;;;;;5052772;28;20381;-67
2022/04/16 09:44:00;;;;;;;7.72;4.90;;;;;;;;;;5050059;28;20045;-67
2022/04/16 09:46:28;;;;;;;6.95;4.38;;;;;;;;;;5052645;28;20041;-67
2022/04/16 09:49:04;;;;;;;7.25;4.95;;;;;;;;;;5052382;28;20061;-66
2022/04/16 09:51:33;;;;;;;6.32;4.22;;;;;;;;;;5049398;28;20126;-67
2022/04/16 09:53:59;;;;;;;7.55;4.75;;;;;;;;;;5052803;28;20064;-67
2022/04/16 09:56:28;;;;;;;7.65;5.20;;;;;;;;;;5052490;28;20484;-67
2022/04/16 09:58:56;;;;;;;7.57;4.55;;;;;;;;;;5053254;28;20108;-67
2022/04/16 10:01:23;;;;;;;6.80;4.13;;;;;;;;;;5051091;28;20045;-67
2022/04/16 10:03:50;;;;;;;9.85;4.05;;;;;;;;;;5051955;28;20044;-67
2022/04/16 10:06:16;;;;;;;5.18;3.88;;;;;;;;;;5051910;28;20630;-67
2022/04/16 10:08:42;;;;;;;5.65;3.80;;;;;;;;;;5051474;28;20044;-68
2022/04/16 10:11:19;;;;;;;5.63;3.92;;;;;;;;;;5051813;28;20033;-67
2022/04/16 10:13:49;;;;;;;5.72;3.60;;;;;;;;;;5052228;28;20083;-68
2022/04/16 10:16:22;;;;;;;5.40;3.92;;;;;;;;;;5035256;28;20044;-67
2022/04/16 10:18:49;;;;;;;6.32;4.00;;;;;;;;;;5051511;28;20040;-68
2022/04/16 10:21:16;;;;;;;6.00;3.55;;;;;;;;;;5051831;28;20049;-67
2022/04/16 10:23:42;;;;;;;5.82;3.45;;;;;;;;;;5052411;28;20041;-68
2022/04/16 10:26:12;;;;;;;6.05;3.45;;;;;;;;;;5080493;28;20041;-67
2022/04/16 10:28:42;;;;;;;5.32;3.00;;;;;;;;;;5048565;28;20037;-67
2022/04/16 10:31:21;;;;;;;4.53;2.90;;;;;;;;;;5051712;28;20037;-67
2022/04/16 10:33:57;;;;;;;4.95;3.28;;;;;;;;;;5047924;28;20493;-69
2022/04/16 10:36:27;;;;;;;5.65;2.60;;;;;;;;;;5051819;28;20465;-68
2022/04/16 10:38:53;;;;;;;3.95;2.65;;;;;;;;;;5051588;28;20099;-68
2022/04/16 10:41:19;;;;;;;4.90;2.40;;;;;;;;;;5049753;28;20094;-69
2022/04/16 10:44:02;;;;;;;3.17;2.30;;;;;;;;;;5050294;28;20040;-68
2022/04/16 10:46:41;;;;;;;3.80;2.35;;;;;;;;;;5048028;28;20440;-68
2022/04/16 10:49:08;;;;;;;4.40;2.40;;;;;;;;;;5048009;28;20045;-68
2022/04/16 10:51:35;;;;;;;4.55;2.47;;;;;;;;;;5049967;28;20061;-68
2022/04/16 10:54:11;;;;;;;4.97;2.40;;;;;;;;;;5045480;28;20485;-68
2022/04/16 10:56:40;;;;;;;3.00;2.08;;;;;;;;;;5047723;28;20048;-68
2022/04/16 10:59:11;;;;;;;3.83;2.05;;;;;;;;;;5043477;28;20118;-68
2022/04/16 11:01:37;;;;;;;3.85;2.03;;;;;;;;;;5083531;28;20064;-68
2022/04/16 11:04:15;;;;;;;3.95;1.75;;;;;;;;;;5050254;28;20090;-68
2022/04/16 11:06:45;;;;;;;3.33;1.90;;;;;;;;;;5048900;28;20125;-68
2022/04/16 11:09:18;;;;;;;2.63;1.38;;;;;;;;;;5050382;28;20120;-69
2022/04/16 11:11:49;;;;;;;2.58;1.60;;;;;;;;;;5049984;28;20124;-68
2022/04/16 11:14:16;;;;;;;2.83;1.77;;;;;;;;;;5050980;28;20045;-67
2022/04/16 11:16:44;;;;;;;4.80;2.10;;;;;;;;;;5049061;28;20037;-68
2022/04/16 11:19:17;;;;;;;5.00;2.17;;;;;;;;;;5064327;28;20575;-68
2022/04/16 11:21:43;;;;;;;3.97;2.10;;;;;;;;;;5050575;28;20571;-68
2022/04/16 11:24:10;;;;;;;2.53;1.70;;;;;;;;;;5047748;28;20045;-68
2022/04/16 11:34:53;;;;;;;3.00;2.08;;;;;;;;;;5049515;28;20049;-68
2022/04/16 11:37:19;;;;;;;5.97;2.25;;;;;;;;;;5049876;28;20037;-68
2022/04/16 11:39:48;;;;;;;4.78;2.28;;;;;;;;;;5049704;28;20048;-68
2022/04/16 11:42:15;;;;;;;4.30;2.20;;;;;;;;;;5048646;28;20055;-68
2022/04/16 11:44:42;;;;;;;4.32;1.88;;;;;;;;;;5048973;28;20075;-68
2022/04/16 11:47:08;;;;;;;2.47;1.65;;;;;;;;;;5077689;28;20040;-68
2022/04/16 11:49:34;;;;;;;3.40;1.60;;;;;;;;;;5048775;28;20048;-68
2022/04/16 11:52:01;;;;;;;3.70;1.80;;;;;;;;;;5049111;28;20489;-68
2022/04/16 11:54:30;;;;;;;3.05;1.80;;;;;;;;;;5047995;28;20068;-68
